Latest Weather Observations for Rowley Shoals

IDW60801

Issued at 6:05 am WST Thursday 2 October 2014 (issued every 30 minutes, with the page automatically refreshed every 10 minutes)

About weather observations | Map of weather stations | Latest weather observations for WA | Other Formats
Station Details ID: 200713 Name: ROWLEY SHOALS Lat: -17.52 Lon: 118.95 Height: 0.0 m
Data from the previous 72 hours. | See also: Recent months for locations in Western Australia
Date/Time
WST
Temp
°C
App
Temp
°C
Dew
Point
Rel
Hum
%
Delta-T
°C
Wind Press
QNH
hPa
Press
MSL
hPa
Rain
since 9 am
mm
Dir
 
Spd
km/h
Gust
km/h
Spd
kts
Gust
kts
02/06:00am - - - - - SW 32 35 17 19 1012.3 - -
02/05:30am - - - - - SSW 22 24 12 13 1012.7 - -
02/05:00am - - - - - SSW 22 26 12 14 1012.4 1012.6 -
02/04:30am - - - - - SSW 19 22 10 12 1012.2 - -
02/04:00am - - - - - SW 15 20 8 11 1012.0 1012.0 -
02/03:30am - - - - - SW 24 26 13 14 1011.4 - -
02/03:00am - - - - - SW 22 32 12 17 1010.9 1011.4 -
02/02:30am - - - - - WSW 26 32 14 17 1010.8 - -
02/02:00am - - - - - WSW 26 35 14 19 1011.1 1011.2 -
02/01:30am - - - - - WSW 24 28 13 15 1011.4 - -
02/01:00am - - - - - WSW 22 24 12 13 1011.6 1011.6 -
02/12:30am - - - - - WSW 22 26 12 14 1011.7 - -
02/12:00am - - - - - WSW 24 24 13 13 1012.0 1011.7 -
 
Date/Time
WST
Temp
°C
App
Temp
°C
Dew
Point
Rel
Hum
%
Delta-T
°C
Wind Press
QNH
hPa
Press
MSL
hPa
Rain
since 9 am
mm
Dir
 
Spd
km/h
Gust
km/h
Spd
kts
Gust
kts
01/11:30pm - - - - - WSW 22 26 12 14 1012.3 - -
01/11:00pm - - - - - WSW 24 26 13 14 1012.5 1012.2 -
01/10:30pm - - - - - W 22 26 12 14 1012.6 - -
01/10:00pm - - - - - W 20 24 11 13 1012.8 1012.8 -
01/09:30pm - - - - - WSW 22 26 12 14 1012.7 - -
01/09:00pm - - - - - WSW 20 26 11 14 1012.7 1012.7 -
01/08:30pm - - - - - WSW 24 26 13 14 1012.5 - -
01/08:00pm - - - - - W 17 22 9 12 1012.5 1012.6 -
01/07:30pm - - - - - W 17 22 9 12 1012.0 - -
01/07:00pm - - - - - WSW 33 39 18 21 1010.6 1010.8 -
01/06:30pm - - - - - WSW 32 37 17 20 1010.6 - -
01/06:00pm - - - - - WSW 32 35 17 19 1010.4 1010.4 -
01/05:30pm - - - - - WSW 32 35 17 19 1010.1 - -
01/05:00pm - - - - - WSW 32 33 17 18 1009.9 1009.9 -
01/04:30pm - - - - - WSW 33 39 18 21 1009.8 - -
01/04:00pm - - - - - WSW 33 39 18 21 1009.9 1009.9 -
01/03:30pm - - - - - WSW 30 33 16 18 1010.1 - -
01/03:00pm - - - - - WSW 30 33 16 18 1010.2 1010.2 -
01/02:30pm - - - - - WSW 28 32 15 17 1010.5 - -
01/02:00pm - - - - - WSW 28 33 15 18 1010.7 1010.7 -
01/01:30pm - - - - - WSW 26 32 14 17 1011.2 - -
01/01:00pm - - - - - WSW 26 30 14 16 1011.4 1011.5 -
01/12:30pm - - - - - SW 28 32 15 17 1011.7 - -
01/12:00pm - - - - - SW 28 33 15 18 1012.3 1012.2 -
01/11:30am - - - - - SSW 28 32 15 17 1012.6 - -
01/11:00am - - - - - SSW 28 35 15 19 1013.1 1013.0 -
01/10:30am - - - - - SSW 33 39 18 21 1013.1 - -
01/10:00am - - - - - SSW 30 35 16 19 1013.4 1013.3 -
01/09:30am - - - - - SSW 30 32 16 17 1013.5 - -
01/09:00am - - - - - SSW 28 33 15 18 1013.4 1013.5 -
01/08:30am - - - - - SSW 28 33 15 18 1013.3 - -
01/08:00am - - - - - SW 24 32 13 17 1013.3 1013.3 -
01/07:30am - - - - - SSW 24 28 13 15 1013.0 - -
01/07:00am - - - - - SSW 26 32 14 17 1012.5 1012.7 -
01/06:30am - - - - - SSW 26 28 14 15 1012.3 - -
01/06:00am - - - - - SSW 26 32 14 17 1011.8 1011.9 -
01/05:30am - - - - - SSW 24 28 13 15 1011.5 - -
01/05:00am - - - - - SSW 24 28 13 15 1010.9 1011.1 -
01/04:30am - - - - - SSW 22 26 12 14 1010.5 - -
01/04:00am - - - - - SSW 22 26 12 14 1010.1 1010.2 -
01/03:30am - - - - - SW 22 24 12 13 1010.0 - -
01/03:00am - - - - - SSW 20 22 11 12 1009.9 1010.0 -
01/02:30am - - - - - SSW 20 24 11 13 1010.0 - -
01/02:00am - - - - - SSW 20 24 11 13 1010.3 1010.2 -
01/01:30am - - - - - SW 20 24 11 13 1010.2 - -
01/01:00am - - - - - SW 22 26 12 14 1010.3 1010.2 -
01/12:30am - - - - - WSW 28 32 15 17 1010.0 - -
01/12:00am - - - - - WSW 28 35 15 19 1010.2 1010.2 -
 
Date/Time
WST
Temp
°C
App
Temp
°C
Dew
Point
Rel
Hum
%
Delta-T
°C
Wind Press
QNH
hPa
Press
MSL
hPa
Rain
since 9 am
mm
Dir
 
Spd
km/h
Gust
km/h
Spd
kts
Gust
kts
30/11:30pm - - - - - W 30 33 16 18 1010.5 - -
30/11:00pm - - - - - WSW 24 30 13 16 1011.3 1011.3 -
30/10:30pm - - - - - SW 24 28 13 15 1011.6 - -
30/10:00pm - - - - - SW 26 30 14 16 1011.8 1011.7 -
30/09:30pm - - - - - SW 24 28 13 15 1011.9 - -
30/09:00pm - - - - - SW 26 28 14 15 1012.0 1012.0 -
30/08:30pm - - - - - SW 26 32 14 17 1012.0 - -
30/08:00pm - - - - - SW 24 30 13 16 1012.0 1012.0 -
30/07:30pm - - - - - SW 24 28 13 15 1011.8 - -
30/07:00pm - - - - - SW 24 26 13 14 1011.6 1011.6 -
30/06:30pm - - - - - SW 22 26 12 14 1011.3 - -
30/06:00pm 26.5 - - - - SW 24 26 13 14 1011.0 1011.1 -
30/05:30pm 26.4 - - - - SW 22 24 12 13 1010.9 - -
30/05:00pm 26.5 - - - - SW 20 24 11 13 1010.8 1010.9 -
30/04:30pm 26.5 - - - - SSW 20 24 11 13 1010.7 - -
30/04:00pm 26.5 - - - - SSW 20 24 11 13 1010.6 1010.5 -
30/03:30pm 26.5 - - - - SSW 20 24 11 13 1010.5 - -
30/03:00pm 26.5 - - - - SSW 22 24 12 13 1010.6 1010.6 -
30/02:30pm - - - - - SSW 20 24 11 13 1010.6 - -
30/02:00pm - - - - - SSW 24 26 13 14 1010.7 1010.7 -
30/01:30pm - - - - - SW 24 28 13 15 1010.8 - -
30/01:00pm - - - - - SW 20 22 11 12 1011.1 1011.0 -
30/12:30pm - - - - - SW 17 20 9 11 1011.5 - -
30/12:00pm - - - - - SW 19 20 10 11 1012.0 1011.8 -
30/11:30am - - - - - SSW 20 22 11 12 1012.3 - -
30/11:00am - - - - - SSW 19 22 10 12 1012.8 1012.8 -
30/10:30am - - - - - SSW 22 26 12 14 1012.8 - -
30/10:00am - - - - - SSW 20 24 11 13 1012.9 1012.7 -
30/09:30am - - - - - SSW 24 28 13 15 1013.1 - -
30/09:00am - - - - - S 22 26 12 14 1013.3 1013.4 -
30/08:30am - - - - - SSW 22 26 12 14 1013.2 - -
30/08:00am - - - - - SSW 20 22 11 12 1013.1 1013.1 -
30/07:30am - - - - - SSW 19 22 10 12 1012.8 - -
30/07:00am - - - - - SSW 20 24 11 13 1012.5 1012.6 -
30/06:30am - - - - - SSW 22 26 12 14 1012.1 - -
30/06:00am - - - - - SSW 24 28 13 15 1011.5 1011.6 -
30/05:30am - - - - - SSW 26 28 14 15 1011.3 - -
30/05:00am - - - - - SSW 28 35 15 19 1010.7 1010.9 -
30/04:30am - - - - - SSW 33 39 18 21 1010.2 - -
30/04:00am - - - - - SW 33 39 18 21 1010.1 1010.1 -
30/03:30am - - - - - SW 35 43 19 23 1009.9 - -
30/03:00am - - - - - SW 33 43 18 23 1009.8 1009.9 -
30/02:30am - - - - - SW 35 43 19 23 1009.9 - -
30/02:00am - - - - - WSW 35 46 19 25 1009.9 1010.0 -
30/01:30am - - - - - SW 28 30 15 16 1010.9 - -
30/01:00am - - - - - SW 26 28 14 15 1011.3 1011.2 -
30/12:30am - - - - - SW 24 28 13 15 1011.8 - -
30/12:00am - - - - - SW 24 28 13 15 1012.1 1012.0 -
 
Date/Time
WST
Temp
°C
App
Temp
°C
Dew
Point
Rel
Hum
%
Delta-T
°C
Wind Press
QNH
hPa
Press
MSL
hPa
Rain
since 9 am
mm
Dir
 
Spd
km/h
Gust
km/h
Spd
kts
Gust
kts
29/11:30pm - - - - - SW 20 24 11 13 1012.3 - -
29/11:00pm - - - - - SW 20 24 11 13 1012.7 1012.5 -
29/10:30pm - - - - - SW 22 26 12 14 1013.0 - -
29/10:00pm - - - - - SW 22 24 12 13 1013.2 1013.1 -
29/09:30pm - - - - - SW 22 26 12 14 1013.4 - -
29/09:00pm - - - - - SW 22 26 12 14 1013.4 1013.4 -
29/08:30pm - - - - - SSW 22 26 12 14 1013.3 - -
29/08:00pm - - - - - SSW 22 26 12 14 1013.0 1013.1 -
29/07:30pm - - - - - SW 22 26 12 14 1012.6 - -
29/07:00pm - - - - - SW 24 26 13 14 1012.3 1012.3 -
29/06:30pm - - - - - SW 24 26 13 14 1012.1 - -
29/06:00pm - - - - - SW 24 24 13 13 1011.8 1011.8 -
29/05:30pm - - - - - SW 22 24 12 13 1011.5 - -
29/05:00pm - - - - - SW 19 20 10 11 1011.5 1011.4 -
29/04:30pm - - - - - SW 15 17 8 9 1011.3 - -
29/04:00pm - - - - - SW 20 22 11 12 1010.9 1011.0 -
29/03:30pm - - - - - SW 20 22 11 12 1011.0 - -
29/03:00pm - - - - - SW 20 20 11 11 1010.9 1010.9 -
29/02:30pm - - - - - SW 20 22 11 12 1011.0 - -
29/02:00pm - - - - - SSW 20 28 11 15 1010.9 1011.1 -
29/01:30pm - - - - - SSW 20 24 11 13 1011.0 - -
29/01:00pm - - - - - SSW 24 28 13 15 1011.3 1011.2 -
29/12:30pm - - - - - SSW 22 26 12 14 1011.9 - -
29/12:00pm - - - - - SSW 22 28 12 15 1012.3 1012.3 -
29/11:30am - - - - - SSW 24 28 13 15 1012.7 - -
29/11:00am - - - - - SSW 24 28 13 15 1012.7 1012.7 -
29/10:30am - - - - - S 20 22 11 12 1013.5 - -
29/10:00am - - - - - S 20 24 11 13 1013.7 1013.5 -
29/09:30am - - - - - S 19 24 10 13 1013.8 - -
29/09:00am - - - - - S 17 19 9 10 1013.7 1013.7 -
29/08:30am - - - - - S 13 17 7 9 1013.7 - -
29/08:00am - - - - - S 15 20 8 11 1013.4 1013.5 -
29/07:30am - - - - - S 17 20 9 11 1013.2 - -
29/07:00am - - - - - SSW 20 26 11 14 1012.7 1012.8 -
29/06:30am - - - - - SW 24 28 13 15 1012.1 - -

Other Formats:

Comma delimited format used in spreadsheet applications
http://www.bom.gov.au/fwo/IDW60801/IDW60801.94207.axf

JavaScript Object Notation format (JSON) in row-major order
http://www.bom.gov.au/fwo/IDW60801/IDW60801.94207.json